createdAt,value
2023-03-20T00:01:14.285Z,56.60
2023-03-20T00:03:42.958Z,63.03
2023-03-20T00:06:18.863Z,66.05
2023-03-20T00:08:48.997Z,53.33
2023-03-20T00:11:33.559Z,59.25
2023-03-20T00:14:04.205Z,58.75
2023-03-20T00:16:34.332Z,60.50
2023-03-20T00:19:03.349Z,54.70
2023-03-20T00:21:33.218Z,58.35
2023-03-20T00:24:02.060Z,59.25
2023-03-20T00:26:34.912Z,60.47
2023-03-20T00:29:05.127Z,60.58
2023-03-20T00:31:36.084Z,61.53
2023-03-20T00:34:06.447Z,67.28
2023-03-20T00:36:36.339Z,60.55
2023-03-20T00:39:04.930Z,63.17
2023-03-20T00:41:38.352Z,58.15
2023-03-20T00:44:19.821Z,65.05
2023-03-20T00:46:50.740Z,65.05
2023-03-20T00:49:19.905Z,62.15
2023-03-20T00:51:49.270Z,64.97
2023-03-20T00:54:19.074Z,66.25
2023-03-20T00:56:52.598Z,61.78
2023-03-20T00:59:25.730Z,62.85
2023-03-20T01:01:54.277Z,62.00
2023-03-20T01:04:23.880Z,66.90
2023-03-20T01:06:53.983Z,67.05
2023-03-20T01:09:22.459Z,68.32
2023-03-20T01:11:52.367Z,67.70
2023-03-20T01:14:21.913Z,79.13
2023-03-20T01:16:50.028Z,73.18
2023-03-20T01:19:18.402Z,69.95
2023-03-20T01:21:47.643Z,66.15
2023-03-20T01:24:17.258Z,68.50
2023-03-20T01:26:46.601Z,70.95
2023-03-20T01:29:19.915Z,77.72
2023-03-20T01:31:48.468Z,75.80
2023-03-20T01:34:17.488Z,70.88
2023-03-20T01:36:49.755Z,70.85
2023-03-20T01:39:21.794Z,64.18
2023-03-20T01:41:52.160Z,66.28
2023-03-20T01:44:22.522Z,70.22
2023-03-20T01:46:55.499Z,75.57
2023-03-20T01:50:19.224Z,71.22
2023-03-20T01:52:51.475Z,81.00
2023-03-20T01:55:22.501Z,83.85
2023-03-20T01:57:59.792Z,82.38
2023-03-20T02:00:28.016Z,76.20
2023-03-20T02:02:57.242Z,96.07
2023-03-20T02:05:46.226Z,72.07
2023-03-20T02:08:20.609Z,74.53
2023-03-20T02:10:50.628Z,69.57
2023-03-20T02:13:27.707Z,75.38
2023-03-20T02:16:07.513Z,71.45
2023-03-20T02:18:58.394Z,86.03
2023-03-20T02:21:59.931Z,88.40
2023-03-20T02:25:02.358Z,76.88
2023-03-20T02:27:45.879Z,68.05
2023-03-20T02:30:56.616Z,76.00
2023-03-20T02:33:51.019Z,68.50
2023-03-20T02:36:59.049Z,67.43
2023-03-20T02:39:47.486Z,75.40
2023-03-20T02:42:25.526Z,79.47
2023-03-20T02:45:04.820Z,69.80
2023-03-20T02:47:42.396Z,74.40
2023-03-20T02:50:27.138Z,85.57
2023-03-20T02:53:08.719Z,73.43
2023-03-20T02:55:42.687Z,88.22
2023-03-20T02:58:15.778Z,79.93
2023-03-20T03:00:52.027Z,76.60
2023-03-20T03:03:25.406Z,80.68
2023-03-20T03:05:59.759Z,69.82
2023-03-20T03:08:33.867Z,74.40
2023-03-20T03:11:07.510Z,79.40
2023-03-20T03:13:40.305Z,63.65
2023-03-20T03:16:12.840Z,72.40
2023-03-20T03:18:43.472Z,71.25
2023-03-20T03:21:14.653Z,67.30
2023-03-20T03:23:47.148Z,61.65
2023-03-20T03:26:22.467Z,69.50
2023-03-20T03:28:55.802Z,58.38
2023-03-20T03:31:24.858Z,71.60
2023-03-20T03:33:56.193Z,63.30
2023-03-20T03:36:38.689Z,66.00
2023-03-20T03:39:19.126Z,67.80
2023-03-20T03:41:53.506Z,70.03
2023-03-20T03:44:27.863Z,67.63
2023-03-20T03:47:00.189Z,62.17
2023-03-20T03:49:34.079Z,70.70
2023-03-20T03:52:06.431Z,73.32
2023-03-20T03:54:40.704Z,77.55
2023-03-20T03:57:34.272Z,75.93
2023-03-20T04:00:07.042Z,65.28
2023-03-20T04:02:48.197Z,70.15
2023-03-20T04:05:19.528Z,71.55
2023-03-20T04:07:48.209Z,73.18
2023-03-20T04:10:18.507Z,64.30
2023-03-20T04:12:48.521Z,61.47
2023-03-20T04:15:17.355Z,74.28
2023-03-20T04:17:45.720Z,72.10
2023-03-20T04:20:16.243Z,69.38
2023-03-20T04:22:45.157Z,68.38
2023-03-20T04:25:18.976Z,74.65
2023-03-20T04:27:48.738Z,66.45
2023-03-20T04:30:25.076Z,66.75
2023-03-20T04:33:12.514Z,63.47
2023-03-20T04:36:13.514Z,70.57
2023-03-20T04:38:42.774Z,58.80
2023-03-20T04:41:11.238Z,66.85
2023-03-20T04:43:41.786Z,65.35
2023-03-20T04:46:09.891Z,57.35
2023-03-20T04:48:39.167Z,62.42
2023-03-20T04:51:07.867Z,78.82
2023-03-20T04:53:46.089Z,74.28
2023-03-20T04:56:14.363Z,66.80
2023-03-20T04:58:44.181Z,68.07
2023-03-20T05:01:12.978Z,62.25
2023-03-20T05:03:41.580Z,69.43
2023-03-20T05:06:10.728Z,57.88
2023-03-20T05:08:44.628Z,54.30
2023-03-20T05:11:13.050Z,53.55
2023-03-20T05:14:01.139Z,49.22
2023-03-20T05:16:50.805Z,41.22
2023-03-20T05:19:26.379Z,47.35
2023-03-20T05:22:12.820Z,51.15
2023-03-20T05:25:01.150Z,43.42
2023-03-20T05:27:48.387Z,43.95
2023-03-20T05:30:38.170Z,47.13
2023-03-20T05:33:32.290Z,45.60
2023-03-20T05:36:19.624Z,41.47
2023-03-20T05:39:16.382Z,36.47
2023-03-20T05:42:03.308Z,47.70
2023-03-20T05:44:45.224Z,38.60
2023-03-20T05:47:26.208Z,38.70
2023-03-20T05:50:05.540Z,38.50
2023-03-20T05:52:51.200Z,40.55
2023-03-20T05:55:45.586Z,36.58
2023-03-20T05:58:35.182Z,38.22
2023-03-20T06:01:22.401Z,38.88
2023-03-20T06:03:54.860Z,40.33
2023-03-20T06:06:42.963Z,42.03
2023-03-20T06:09:11.474Z,47.67
2023-03-20T06:11:39.799Z,39.38
2023-03-20T06:14:08.801Z,36.30
2023-03-20T06:16:40.551Z,37.25
2023-03-20T06:19:11.170Z,34.30
2023-03-20T06:21:39.284Z,33.83
2023-03-20T06:24:11.364Z,35.95
2023-03-20T06:26:39.614Z,39.90
2023-03-20T06:29:11.726Z,36.33
2023-03-20T06:31:40.008Z,35.63
2023-03-20T06:34:13.900Z,29.13
2023-03-20T06:36:47.069Z,29.17
2023-03-20T06:39:20.382Z,28.20
2023-03-20T06:41:49.420Z,28.85
2023-03-20T06:44:17.615Z,26.30
2023-03-20T06:47:11.790Z,25.38
2023-03-20T06:49:44.531Z,21.33
2023-03-20T06:52:17.585Z,28.95
2023-03-20T06:54:52.457Z,24.90
2023-03-20T06:57:20.961Z,25.33
2023-03-20T06:59:49.078Z,23.13
2023-03-20T07:02:18.100Z,19.58
2023-03-20T07:04:48.342Z,26.05
2023-03-20T07:07:17.481Z,25.25
2023-03-20T07:09:46.768Z,18.65
2023-03-20T07:12:20.143Z,19.08
2023-03-20T07:14:48.593Z,19.67
2023-03-20T07:17:20.472Z,19.33
2023-03-20T07:19:51.916Z,22.83
2023-03-20T07:22:23.691Z,21.83
2023-03-20T07:24:53.645Z,19.08
2023-03-20T07:27:25.262Z,21.40
2023-03-20T07:29:56.164Z,19.60
2023-03-20T07:32:25.582Z,15.20
2023-03-20T07:34:55.576Z,19.35
2023-03-20T07:37:23.676Z,19.33
2023-03-20T07:40:04.954Z,18.00
2023-03-20T07:42:44.354Z,12.73
2023-03-20T07:45:17.062Z,15.60
2023-03-20T07:47:48.314Z,15.27
2023-03-20T07:50:18.875Z,16.92
2023-03-20T07:52:49.135Z,13.23
2023-03-20T07:55:18.750Z,16.90
2023-03-20T07:57:49.326Z,16.33
2023-03-20T08:00:18.892Z,13.10
2023-03-20T08:02:47.056Z,13.82
2023-03-20T08:06:07.630Z,15.20
2023-03-20T08:08:38.262Z,14.13
2023-03-20T08:11:07.226Z,14.55
2023-03-20T08:13:35.608Z,9.85
2023-03-20T08:16:03.760Z,13.82
2023-03-20T08:18:31.845Z,11.82
2023-03-20T08:21:00.299Z,14.02
2023-03-20T08:23:28.703Z,10.75
2023-03-20T08:25:58.537Z,8.80
2023-03-20T08:28:40.402Z,11.77
2023-03-20T08:31:12.638Z,10.40
2023-03-20T08:33:41.207Z,12.00
2023-03-20T08:36:10.004Z,13.20
2023-03-20T08:38:38.608Z,13.18
2023-03-20T08:41:09.489Z,12.90
2023-03-20T08:43:37.680Z,9.32
2023-03-20T08:46:08.208Z,10.90
2023-03-20T08:48:37.451Z,10.68
2023-03-20T08:51:06.405Z,12.20
2023-03-20T08:53:34.532Z,10.32
2023-03-20T08:56:03.101Z,9.10
2023-03-20T08:58:33.063Z,9.73
2023-03-20T09:01:05.858Z,11.10
2023-03-20T09:03:34.020Z,11.07
2023-03-20T09:06:02.111Z,11.30
2023-03-20T09:08:30.352Z,14.25
2023-03-20T09:10:58.991Z,11.07
2023-03-20T09:13:28.101Z,10.10
2023-03-20T09:15:58.343Z,7.95
2023-03-20T09:18:27.030Z,13.27
2023-03-20T09:20:56.654Z,11.95
2023-03-20T09:23:25.420Z,12.63
2023-03-20T09:25:53.524Z,12.40
2023-03-20T09:28:21.676Z,11.20
2023-03-20T09:30:49.983Z,11.77
2023-03-20T09:33:19.979Z,11.88
2023-03-20T09:35:48.431Z,12.10
2023-03-20T09:38:16.630Z,13.93
2023-03-20T09:41:04.083Z,10.80
2023-03-20T09:43:48.309Z,12.48
2023-03-20T09:46:30.811Z,12.27
2023-03-20T09:49:08.952Z,10.20
2023-03-20T09:51:43.064Z,9.65
2023-03-20T09:54:21.717Z,9.88
2023-03-20T09:56:51.170Z,9.55
2023-03-20T09:59:21.773Z,9.52
2023-03-20T10:01:53.267Z,13.93
2023-03-20T10:04:26.313Z,6.50
2023-03-20T10:06:54.814Z,7.72
2023-03-20T10:09:25.240Z,8.07
2023-03-20T10:12:10.173Z,6.05
2023-03-20T10:14:50.988Z,6.78
2023-03-20T10:17:33.134Z,8.75
2023-03-20T10:20:13.755Z,7.97
2023-03-20T10:22:46.320Z,8.48
2023-03-20T10:25:24.972Z,9.27
2023-03-20T10:27:59.403Z,12.18
2023-03-20T10:30:47.182Z,8.35
2023-03-20T10:33:27.730Z,10.48
2023-03-20T10:36:11.879Z,9.23
2023-03-20T10:38:47.081Z,11.23
2023-03-20T10:41:19.158Z,11.55
2023-03-20T10:43:50.933Z,9.65
2023-03-20T10:46:23.450Z,9.80
2023-03-20T10:48:58.236Z,11.10
2023-03-20T10:51:39.428Z,13.52
2023-03-20T10:54:14.201Z,10.95
2023-03-20T10:56:48.012Z,13.23
2023-03-20T10:59:23.483Z,15.48
2023-03-20T11:01:52.011Z,11.50
2023-03-20T11:04:20.216Z,14.00
2023-03-20T11:06:59.920Z,14.32
2023-03-20T11:09:30.522Z,13.35
2023-03-20T11:11:59.753Z,15.68
2023-03-20T11:14:34.513Z,12.63
2023-03-20T11:17:04.639Z,16.30
2023-03-20T11:19:35.080Z,13.52
2023-03-20T11:22:10.174Z,14.82
2023-03-20T11:24:42.865Z,19.45
2023-03-20T11:27:14.238Z,15.27
2023-03-20T11:29:45.794Z,14.73
2023-03-20T11:32:27.979Z,15.50
2023-03-20T11:34:57.567Z,13.63
2023-03-20T11:37:29.319Z,13.80
2023-03-20T11:40:08.554Z,13.45
2023-03-20T11:42:37.620Z,14.93
2023-03-20T11:45:16.057Z,19.08
2023-03-20T11:47:45.433Z,12.70
2023-03-20T11:50:28.858Z,12.65
2023-03-20T11:52:59.332Z,14.70
2023-03-20T11:55:30.992Z,14.50
2023-03-20T11:58:01.353Z,12.30
2023-03-20T12:00:36.653Z,10.38
2023-03-20T12:03:05.382Z,12.70
2023-03-20T12:05:35.621Z,10.80
2023-03-20T12:08:14.237Z,10.18
2023-03-20T12:10:44.107Z,10.95
2023-03-20T12:13:18.840Z,14.00
2023-03-20T12:15:52.452Z,11.07
2023-03-20T12:18:28.067Z,12.00
2023-03-20T12:21:05.683Z,13.43
2023-03-20T12:23:38.592Z,12.52
2023-03-20T12:26:12.790Z,12.95
2023-03-20T12:28:48.771Z,15.95
2023-03-20T12:31:24.883Z,13.10
2023-03-20T12:33:59.536Z,15.27
2023-03-20T12:36:32.928Z,14.68
2023-03-20T12:39:04.500Z,15.95
2023-03-20T12:41:41.691Z,20.05
2023-03-20T12:44:22.894Z,18.02
2023-03-20T12:47:00.113Z,18.38
2023-03-20T12:49:40.194Z,17.02
2023-03-20T12:52:16.468Z,17.83
2023-03-20T12:55:10.534Z,22.15
2023-03-20T12:57:47.971Z,22.10
2023-03-20T13:00:25.076Z,19.73
2023-03-20T13:03:04.583Z,25.60
2023-03-20T13:05:42.772Z,26.60
2023-03-20T13:08:24.518Z,18.42
2023-03-20T13:11:00.612Z,22.70
2023-03-20T13:13:35.022Z,25.65
2023-03-20T13:16:17.946Z,25.10
2023-03-20T13:18:59.185Z,23.65
2023-03-20T13:21:37.486Z,27.42
2023-03-20T13:24:24.213Z,30.15
2023-03-20T13:27:03.508Z,23.17
2023-03-20T13:29:43.111Z,28.77
2023-03-20T13:32:21.363Z,23.13
2023-03-20T13:35:05.130Z,21.83
2023-03-20T13:37:36.903Z,18.70
2023-03-20T13:40:12.744Z,19.33
2023-03-20T13:42:49.318Z,21.90
2023-03-20T13:45:31.691Z,21.42
2023-03-20T13:48:04.818Z,18.55
2023-03-20T13:50:43.604Z,21.38
2023-03-20T13:53:23.462Z,18.50
2023-03-20T13:56:01.068Z,17.40
2023-03-20T13:58:47.755Z,21.02
2023-03-20T14:01:23.570Z,19.73
2023-03-20T14:03:53.145Z,22.80
2023-03-20T14:06:46.592Z,20.85
2023-03-20T14:09:33.134Z,19.80
2023-03-20T14:12:05.249Z,19.27
2023-03-20T14:14:43.094Z,21.83
2023-03-20T14:17:17.791Z,18.05
2023-03-20T14:19:47.057Z,22.90
2023-03-20T14:22:20.870Z,20.70
2023-03-20T14:24:56.414Z,21.67
2023-03-20T14:27:45.158Z,21.83
2023-03-20T14:30:41.982Z,20.02
2023-03-20T14:33:26.889Z,19.00
2023-03-20T14:36:18.646Z,22.02
2023-03-20T14:38:57.325Z,19.52
2023-03-20T14:41:31.794Z,19.10
2023-03-20T14:44:12.956Z,17.92
2023-03-20T14:46:52.851Z,16.63
2023-03-20T14:49:37.532Z,19.00
2023-03-20T14:52:24.336Z,20.00
2023-03-20T14:54:56.836Z,23.02
2023-03-20T14:57:37.567Z,21.75
2023-03-20T15:00:23.182Z,27.15
2023-03-20T15:02:54.955Z,21.95
2023-03-20T15:05:29.254Z,18.88
2023-03-20T15:07:59.255Z,18.20
2023-03-20T15:10:27.397Z,18.90
2023-03-20T15:12:58.208Z,18.75
2023-03-20T15:15:30.667Z,24.75
2023-03-20T15:18:08.879Z,24.48
2023-03-20T15:20:37.674Z,25.50
2023-03-20T15:23:06.529Z,25.15
2023-03-20T15:25:39.337Z,23.92
2023-03-20T15:28:08.192Z,25.02
2023-03-20T15:30:39.823Z,25.25
2023-03-20T15:33:17.636Z,24.80
2023-03-20T15:35:45.937Z,23.42
2023-03-20T15:38:17.295Z,31.50
2023-03-20T15:40:50.958Z,26.13
2023-03-20T15:43:22.544Z,32.65
2023-03-20T15:46:03.019Z,29.38
2023-03-20T15:48:40.046Z,23.90
2023-03-20T15:51:11.495Z,28.83
2023-03-20T15:53:44.677Z,18.23
2023-03-20T15:56:18.782Z,25.88
2023-03-20T15:58:50.132Z,18.10
2023-03-20T16:01:20.554Z,25.77
2023-03-20T16:03:52.178Z,26.55
2023-03-20T16:06:22.899Z,22.67
2023-03-20T16:08:59.140Z,27.77
2023-03-20T16:11:38.318Z,32.40
2023-03-20T16:14:07.901Z,24.10
2023-03-20T16:16:37.799Z,32.58
2023-03-20T16:19:09.351Z,38.92
2023-03-20T16:21:41.764Z,42.47
2023-03-20T16:24:16.995Z,39.17
2023-03-20T16:26:49.688Z,39.38
2023-03-20T16:29:19.513Z,43.45
2023-03-20T16:31:56.251Z,38.30
2023-03-20T16:34:32.094Z,33.67
2023-03-20T16:37:03.449Z,39.33
2023-03-20T16:39:32.503Z,31.67
2023-03-20T16:42:13.029Z,29.02
2023-03-20T16:44:43.358Z,29.17
2023-03-20T16:47:20.108Z,28.48
2023-03-20T16:50:12.812Z,28.95
2023-03-20T16:52:43.487Z,29.50
2023-03-20T16:55:17.075Z,23.35
2023-03-20T16:57:49.763Z,26.77
2023-03-20T17:00:24.881Z,24.45
2023-03-20T17:02:59.575Z,29.52
2023-03-20T17:05:43.926Z,31.58
2023-03-20T17:08:15.404Z,30.52
2023-03-20T17:10:51.363Z,25.70
2023-03-20T17:13:19.523Z,32.25
2023-03-20T17:15:47.740Z,25.67
2023-03-20T17:18:16.115Z,29.42
2023-03-20T17:20:45.957Z,30.00
2023-03-20T17:23:17.091Z,30.52
2023-03-20T17:25:45.592Z,32.80
2023-03-20T17:28:20.618Z,35.90
2023-03-20T17:30:50.388Z,31.73
2023-03-20T17:33:21.093Z,32.15
2023-03-20T17:35:52.933Z,30.40
2023-03-20T17:38:23.280Z,30.25
2023-03-20T17:40:53.746Z,30.42
2023-03-20T17:43:22.320Z,31.48
2023-03-20T17:45:50.897Z,27.27
2023-03-20T17:48:21.445Z,25.80
2023-03-20T17:50:52.521Z,24.55
2023-03-20T17:53:25.185Z,19.80
2023-03-20T17:55:54.398Z,29.58
2023-03-20T17:58:24.532Z,26.65
2023-03-20T18:00:54.629Z,25.58
2023-03-20T18:03:23.373Z,28.88
2023-03-20T18:05:54.409Z,26.60
2023-03-20T18:08:23.530Z,26.88
2023-03-20T18:10:53.959Z,23.30
2023-03-20T18:13:23.556Z,25.38
2023-03-20T18:15:54.491Z,25.75
2023-03-20T18:18:24.063Z,26.90
2023-03-20T18:20:55.098Z,30.17
2023-03-20T18:23:23.520Z,27.30
2023-03-20T18:25:51.851Z,31.65
2023-03-20T18:28:23.215Z,38.72
2023-03-20T18:30:52.795Z,26.90
2023-03-20T18:33:25.366Z,30.42
2023-03-20T18:35:55.478Z,32.40
2023-03-20T18:38:25.759Z,29.65
2023-03-20T18:40:54.266Z,32.65
2023-03-20T18:43:22.307Z,28.27
2023-03-20T18:45:50.365Z,32.38
2023-03-20T18:48:18.941Z,32.45
2023-03-20T18:50:51.095Z,33.13
2023-03-20T18:53:21.366Z,26.70
2023-03-20T18:55:49.416Z,26.58
2023-03-20T18:58:22.597Z,30.95
2023-03-20T19:00:53.987Z,32.78
2023-03-20T19:03:24.712Z,34.90
2023-03-20T19:05:53.797Z,33.60
2023-03-20T19:08:23.950Z,28.58
2023-03-20T19:10:53.159Z,32.58
2023-03-20T19:13:23.140Z,29.95
2023-03-20T19:15:51.320Z,29.95
2023-03-20T19:18:21.854Z,30.30
2023-03-20T19:20:52.061Z,29.98
2023-03-20T19:23:21.642Z,28.40
2023-03-20T19:25:55.005Z,27.90
2023-03-20T19:28:37.785Z,24.25
2023-03-20T19:31:09.682Z,25.90
2023-03-20T19:33:39.021Z,28.98
2023-03-20T19:36:19.960Z,24.20
2023-03-20T19:38:48.033Z,29.33
2023-03-20T19:41:19.883Z,25.35
2023-03-20T19:43:52.819Z,21.05
2023-03-20T19:46:42.092Z,25.17
2023-03-20T19:49:19.670Z,25.98
2023-03-20T19:51:48.916Z,23.30
2023-03-20T19:54:17.210Z,22.95
2023-03-20T19:56:46.929Z,23.73
2023-03-20T19:59:16.881Z,26.25
2023-03-20T20:01:46.620Z,27.90
2023-03-20T20:04:15.452Z,24.73
2023-03-20T20:06:47.232Z,25.33
2023-03-20T20:09:16.615Z,25.23
2023-03-20T20:11:46.455Z,22.45
2023-03-20T20:14:15.460Z,23.70
2023-03-20T20:16:45.975Z,23.63
2023-03-20T20:19:14.628Z,21.45
2023-03-20T20:24:31.623Z,28.88
2023-03-20T20:27:16.309Z,23.60
2023-03-20T20:29:49.394Z,25.17
2023-03-20T20:32:18.189Z,19.17
2023-03-20T20:38:25.067Z,21.45
2023-03-20T20:40:28.398Z,21.20
2023-03-20T20:43:01.781Z,17.38
2023-03-20T20:45:32.114Z,18.10
2023-03-20T20:48:01.321Z,14.65
2023-03-20T20:50:31.752Z,18.20
2023-03-20T20:53:00.666Z,17.35
2023-03-20T20:55:28.771Z,18.73
2023-03-20T20:57:58.581Z,15.98
2023-03-20T21:00:45.308Z,23.33
2023-03-20T21:03:16.774Z,18.17
2023-03-20T21:05:44.770Z,18.10
2023-03-20T21:08:14.249Z,19.77
2023-03-20T21:10:42.967Z,15.63
2023-03-20T21:13:12.572Z,18.50
2023-03-20T21:15:41.286Z,15.50
2023-03-20T21:18:10.248Z,17.40
2023-03-20T21:20:38.760Z,20.58
2023-03-20T21:23:07.022Z,20.25
2023-03-20T21:25:40.570Z,16.40
2023-03-20T21:28:11.260Z,20.17
2023-03-20T21:30:54.618Z,19.80
2023-03-20T21:33:31.516Z,14.30
2023-03-20T21:36:00.715Z,22.65
2023-03-20T21:39:01.919Z,19.45
2023-03-20T21:41:18.940Z,20.15
2023-03-20T21:43:47.775Z,18.40
2023-03-20T22:01:14.495Z,19.30
2023-03-20T22:03:33.866Z,19.27
2023-03-20T22:07:05.930Z,14.65
2023-03-20T22:09:45.682Z,21.10
2023-03-20T22:12:30.257Z,18.00
2023-03-20T22:17:53.122Z,24.58
2023-03-20T22:21:06.300Z,20.70
2023-03-20T22:34:54.332Z,21.25
2023-03-20T22:43:17.358Z,18.00
2023-03-20T22:45:52.622Z,21.27
2023-03-20T22:48:28.129Z,21.85
2023-03-20T22:50:56.294Z,18.17
2023-03-20T22:53:25.886Z,20.85
2023-03-20T22:55:54.801Z,19.92
2023-03-20T22:58:23.676Z,23.80
2023-03-20T23:00:55.165Z,20.60
2023-03-20T23:03:42.493Z,22.45
2023-03-20T23:06:30.054Z,19.40
2023-03-20T23:09:05.702Z,21.45
2023-03-20T23:11:41.794Z,21.17
2023-03-20T23:14:20.449Z,17.77
2023-03-20T23:16:51.086Z,24.15
2023-03-20T23:19:20.020Z,19.75
2023-03-20T23:21:48.188Z,22.10
2023-03-20T23:24:18.006Z,20.45
2023-03-20T23:26:46.135Z,18.58
2023-03-20T23:29:14.599Z,22.23
2023-03-20T23:31:42.695Z,20.27
2023-03-20T23:34:10.876Z,20.73
2023-03-20T23:36:38.986Z,22.30
2023-03-20T23:39:08.803Z,19.00
2023-03-20T23:44:28.162Z,22.90
2023-03-20T23:46:56.234Z,18.35
2023-03-20T23:49:25.084Z,21.98
2023-03-20T23:51:53.456Z,20.30
2023-03-20T23:54:22.225Z,25.80
2023-03-20T23:56:51.844Z,23.85
2023-03-20T23:59:21.933Z,25.75
